PIF weather

Pingtung North Airport
Pingtung, Pingtung County, Taiwan

Public forecast

Using degrees Celsius for public forecast. Weather courtesy of forecast.io.

METAR (pilot weather report)

Report is more than 6 hours old.

Closest report is Pingtung South Airport, 2.0 nm (3.7 km) SSW. Retrieved 2009/11/06 18:05 UTC (10 years ago):

RCDC 061805Z 00000KT 5000 BR FEW012 BKN120 23/20 Q1013/A2994/ NOSIG

TAF (pilot weather forecast)

Closest forecast is Kaohsiung International Airport, 10.4 nm (19.3 km) SW. Retrieved 2019/08/19 18:00 UTC (4 hours ago):

TAF RCKH 191700Z 1918/2024 08005KT 7000 FEW010 BKN024 BKN040 TEMPO 1918/1921 17009KT 2400 SHRA SCT008 BKN012 FEW015CB BKN025 TEMPO 1921/1924 19010G20KT 1700 TSRA SCT006 BKN009 FEW012CB BKN020 TEMPO 2000/2004 20008KT 2800 SHRA SCT010 BKN014 FEW015CB BKN030 BECMG 2004/2006 25005KT FEW015 BKN040 TEMPO 2006/2012 20009KT 3400 SHRA SCT010 BKN020 BKN040 TEMPO 2014/2020 30008KT 4000 SHRA SCT010 BKN022 BKN040